createdAt,value
2022-08-07T00:02:36.360Z,23.97
2022-08-07T00:05:07.097Z,23.98
2022-08-07T00:07:40.850Z,23.55
2022-08-07T00:10:26.360Z,23.54
2022-08-07T00:13:17.638Z,23.64
2022-08-07T00:15:53.602Z,23.65
2022-08-07T00:18:28.497Z,23.67
2022-08-07T00:21:07.934Z,23.79
2022-08-07T00:23:48.919Z,23.98
2022-08-07T00:26:49.553Z,24.02
2022-08-07T00:29:07.885Z,23.99
2022-08-07T00:31:42.070Z,23.85
2022-08-07T00:34:11.749Z,23.69
2022-08-07T00:36:43.338Z,23.76
2022-08-07T00:39:16.976Z,23.60
2022-08-07T00:42:04.865Z,23.93
2022-08-07T00:44:38.401Z,23.84
2022-08-07T00:47:16.142Z,23.95
2022-08-07T00:50:21.169Z,23.97
2022-08-07T00:52:49.944Z,24.00
2022-08-07T00:56:00.340Z,24.02
2022-08-07T00:58:12.033Z,24.10
2022-08-07T01:00:53.745Z,24.02
2022-08-07T01:03:56.583Z,24.01
2022-08-07T01:06:13.626Z,23.79
2022-08-07T01:08:53.029Z,24.15
2022-08-07T01:12:09.941Z,24.13
2022-08-07T01:14:12.750Z,24.07
2022-08-07T01:16:47.972Z,24.08
2022-08-07T01:19:19.838Z,24.05
2022-08-07T01:21:55.357Z,24.03
2022-08-07T01:24:25.595Z,24.02
2022-08-07T01:26:58.608Z,23.90
2022-08-07T01:29:31.391Z,23.83
2022-08-07T01:32:05.437Z,24.02
2022-08-07T01:34:47.457Z,24.08
2022-08-07T01:37:19.278Z,24.14
2022-08-07T01:39:50.303Z,24.28
2022-08-07T01:42:39.948Z,24.51
2022-08-07T01:45:17.817Z,24.78
2022-08-07T01:48:19.445Z,24.59
2022-08-07T01:50:43.243Z,24.50
2022-08-07T01:53:20.795Z,24.51
2022-08-07T01:56:12.043Z,24.69
2022-08-07T01:58:54.660Z,24.74
2022-08-07T02:01:59.781Z,24.90
2022-08-07T02:04:56.040Z,24.78
2022-08-07T02:07:36.142Z,24.87
2022-08-07T02:10:25.060Z,24.85
2022-08-07T02:12:59.516Z,25.15
2022-08-07T02:15:32.426Z,25.30
2022-08-07T02:18:05.220Z,25.45
2022-08-07T02:20:36.380Z,25.60
2022-08-07T02:23:10.391Z,25.77
2022-08-07T02:26:26.762Z,26.03
2022-08-07T02:28:36.212Z,26.45
2022-08-07T02:31:18.685Z,26.70
2022-08-07T02:34:03.494Z,26.98
2022-08-07T02:36:36.213Z,27.17
2022-08-07T02:39:17.342Z,27.41
2022-08-07T02:42:00.172Z,27.64
2022-08-07T02:44:34.863Z,27.71
2022-08-07T02:47:08.315Z,27.91
2022-08-07T02:49:58.984Z,28.06
2022-08-07T02:52:40.057Z,28.36
2022-08-07T02:55:28.491Z,28.51
2022-08-07T02:58:21.812Z,28.79
2022-08-07T03:00:56.175Z,28.80
2022-08-07T03:03:48.936Z,28.79
2022-08-07T03:06:25.910Z,28.95
2022-08-07T03:09:12.324Z,29.12
2022-08-07T03:11:51.729Z,29.00
2022-08-07T03:14:24.093Z,29.09
2022-08-07T03:16:54.895Z,29.11
2022-08-07T03:19:29.030Z,29.25
2022-08-07T03:22:08.354Z,29.52
2022-08-07T03:24:50.111Z,29.92
2022-08-07T03:27:30.588Z,30.16
2022-08-07T03:30:12.928Z,30.21
2022-08-07T03:32:58.224Z,30.31
2022-08-07T03:35:43.471Z,30.72
2022-08-07T03:38:15.160Z,31.03
2022-08-07T03:40:46.063Z,31.20
2022-08-07T03:43:32.322Z,31.40
2022-08-07T03:46:10.412Z,31.44
2022-08-07T03:49:02.462Z,31.83
2022-08-07T03:51:47.899Z,32.03
2022-08-07T03:54:36.154Z,32.19
2022-08-07T03:58:33.769Z,32.33
2022-08-07T04:00:12.598Z,32.55
2022-08-07T04:02:47.462Z,32.80
2022-08-07T04:05:24.094Z,33.06
2022-08-07T04:07:58.654Z,33.31
2022-08-07T04:10:32.801Z,33.58
2022-08-07T04:13:15.081Z,33.83
2022-08-07T04:15:49.030Z,33.98
2022-08-07T04:18:57.335Z,34.24
2022-08-07T04:21:10.206Z,34.43
2022-08-07T04:23:43.994Z,34.57
2022-08-07T04:26:31.505Z,34.71
2022-08-07T04:29:01.547Z,34.97
2022-08-07T04:31:38.394Z,35.14
2022-08-07T04:34:27.461Z,35.32
2022-08-07T04:37:02.752Z,35.50
2022-08-07T04:39:37.658Z,35.74
2022-08-07T04:42:17.381Z,35.86
2022-08-07T04:45:02.656Z,35.97
2022-08-07T04:48:09.851Z,36.09
2022-08-07T04:51:36.014Z,36.33
2022-08-07T04:54:18.687Z,36.71
2022-08-07T04:58:23.958Z,36.86
2022-08-07T05:00:49.005Z,37.17
2022-08-07T05:04:07.783Z,37.37
2022-08-07T05:07:09.595Z,37.44
2022-08-07T05:10:04.767Z,37.82
2022-08-07T05:12:46.301Z,37.80
2022-08-07T05:15:32.562Z,37.91
2022-08-07T05:18:10.399Z,38.00
2022-08-07T05:20:55.218Z,37.98
2022-08-07T05:24:06.184Z,38.12
2022-08-07T05:26:37.422Z,38.10
2022-08-07T05:29:11.203Z,38.17
2022-08-07T05:31:51.123Z,38.32
2022-08-07T05:34:26.394Z,38.41
2022-08-07T05:36:58.848Z,38.51
2022-08-07T05:40:06.618Z,38.69
2022-08-07T05:42:33.877Z,38.84
2022-08-07T05:45:26.208Z,39.02
2022-08-07T05:48:01.970Z,39.06
2022-08-07T05:50:35.216Z,39.17
2022-08-07T05:54:12.141Z,39.40
2022-08-07T05:56:03.004Z,39.34
2022-08-07T05:58:39.095Z,39.53
2022-08-07T06:01:12.627Z,39.57
2022-08-07T06:04:01.224Z,39.99
2022-08-07T06:06:32.340Z,40.52
2022-08-07T06:09:04.477Z,40.50
2022-08-07T06:11:36.208Z,40.59
2022-08-07T06:14:12.014Z,40.73
2022-08-07T06:16:55.998Z,40.88
2022-08-07T06:19:47.860Z,40.96
2022-08-07T06:22:23.369Z,41.07
2022-08-07T06:24:58.449Z,41.26
2022-08-07T06:27:54.428Z,41.43
2022-08-07T06:30:24.230Z,41.58
2022-08-07T06:33:15.690Z,41.72
2022-08-07T06:35:47.662Z,41.86
2022-08-07T06:38:35.766Z,41.99
2022-08-07T06:41:13.395Z,42.13
2022-08-07T06:44:01.294Z,42.29
2022-08-07T06:46:35.334Z,42.42
2022-08-07T06:49:06.367Z,42.54
2022-08-07T06:51:43.424Z,42.65
2022-08-07T06:55:31.346Z,42.76
2022-08-07T06:57:12.488Z,42.90
2022-08-07T07:00:12.200Z,43.02
2022-08-07T07:02:53.586Z,43.18
2022-08-07T07:06:05.608Z,43.26
2022-08-07T07:08:18.887Z,43.39
2022-08-07T07:10:57.506Z,43.49
2022-08-07T07:13:57.772Z,43.56
2022-08-07T07:16:45.421Z,43.86
2022-08-07T07:19:57.460Z,44.15
2022-08-07T07:22:36.322Z,44.35
2022-08-07T07:26:31.358Z,44.47
2022-08-07T07:29:40.116Z,44.60
2022-08-07T07:31:46.517Z,44.76
2022-08-07T07:34:30.902Z,44.83
2022-08-07T07:37:45.100Z,44.98
2022-08-07T07:40:02.171Z,45.15
2022-08-07T07:42:34.827Z,45.23
2022-08-07T07:45:11.473Z,45.38
2022-08-07T07:47:52.647Z,45.50
2022-08-07T07:50:34.008Z,45.60
2022-08-07T07:53:20.103Z,45.76
2022-08-07T07:56:01.035Z,46.01
2022-08-07T07:58:40.903Z,46.19
2022-08-07T08:02:03.338Z,46.43
2022-08-07T08:04:11.686Z,46.72
2022-08-07T08:06:50.754Z,46.89
2022-08-07T08:09:29.527Z,46.96
2022-08-07T08:12:05.278Z,46.99
2022-08-07T08:14:37.221Z,47.06
2022-08-07T08:17:57.775Z,47.09
2022-08-07T08:20:17.252Z,47.19
2022-08-07T08:23:14.933Z,47.30
2022-08-07T08:26:17.366Z,47.41
2022-08-07T08:28:49.077Z,47.52
2022-08-07T08:31:58.839Z,47.69
2022-08-07T08:34:29.157Z,47.88
2022-08-07T08:37:01.287Z,48.01
2022-08-07T08:39:39.273Z,48.21
2022-08-07T08:43:20.688Z,48.44
2022-08-07T08:46:08.830Z,48.69
2022-08-07T08:49:32.858Z,48.91
2022-08-07T08:52:53.850Z,49.10
2022-08-07T08:55:58.556Z,49.21
2022-08-07T08:59:42.294Z,49.41
2022-08-07T09:02:41.883Z,49.53
2022-08-07T09:05:42.480Z,49.66
2022-08-07T09:08:36.601Z,49.85
2022-08-07T09:11:24.765Z,50.00
2022-08-07T09:16:20.523Z,50.15
2022-08-07T09:18:16.898Z,50.48
2022-08-07T09:21:57.921Z,50.59
2022-08-07T09:24:59.416Z,50.77
2022-08-07T09:27:38.324Z,50.95
2022-08-07T09:30:30.088Z,51.03
2022-08-07T09:33:52.423Z,51.02
2022-08-07T09:36:46.841Z,51.08
2022-08-07T09:39:54.944Z,51.12
2022-08-07T09:43:10.294Z,51.18
2022-08-07T09:47:52.124Z,51.27
2022-08-07T09:50:00.574Z,51.45
2022-08-07T09:52:34.666Z,51.53
2022-08-07T09:55:36.983Z,51.65
2022-08-07T09:58:48.654Z,51.68
2022-08-07T10:02:07.022Z,51.83
2022-08-07T10:05:12.561Z,51.93
2022-08-07T10:08:02.304Z,52.19
2022-08-07T10:11:58.963Z,52.47
2022-08-07T10:14:04.295Z,52.56
2022-08-07T10:17:13.436Z,52.68
2022-08-07T10:20:07.387Z,52.87
2022-08-07T10:24:06.372Z,53.02
2022-08-07T10:26:54.924Z,53.19
2022-08-07T10:30:26.443Z,53.50
2022-08-07T10:34:04.966Z,53.86
2022-08-07T10:37:19.728Z,54.11
2022-08-07T10:40:30.353Z,54.30
2022-08-07T10:43:38.646Z,54.44
2022-08-07T10:46:21.559Z,54.59
2022-08-07T10:49:24.737Z,54.79
2022-08-07T10:52:31.939Z,54.89
2022-08-07T10:55:47.219Z,54.97
2022-08-07T10:58:36.422Z,55.18
2022-08-07T11:01:35.586Z,55.32
2022-08-07T11:04:37.740Z,55.50
2022-08-07T11:08:03.463Z,55.65
2022-08-07T11:10:52.347Z,55.74
2022-08-07T11:14:44.755Z,55.58
2022-08-07T11:17:07.239Z,55.67
2022-08-07T11:19:57.185Z,55.61
2022-08-07T11:22:58.540Z,55.61
2022-08-07T11:25:52.613Z,55.87
2022-08-07T11:28:31.341Z,55.95
2022-08-07T11:31:40.303Z,56.07
2022-08-07T11:34:18.963Z,56.34
2022-08-07T11:37:38.392Z,56.47
2022-08-07T11:40:49.863Z,56.76
2022-08-07T11:43:54.439Z,56.91
2022-08-07T11:47:14.750Z,57.00
2022-08-07T11:50:31.558Z,57.04
2022-08-07T11:53:25.416Z,57.19
2022-08-07T11:56:27.599Z,57.28
2022-08-07T12:00:10.042Z,57.36
2022-08-07T12:03:03.792Z,57.41
2022-08-07T12:06:37.034Z,57.41
2022-08-07T12:09:28.320Z,57.44
2022-08-07T12:12:19.923Z,57.55
2022-08-07T12:15:08.215Z,57.57
2022-08-07T12:18:16.117Z,57.76
2022-08-07T12:21:20.987Z,58.01
2022-08-07T12:24:37.613Z,58.36
2022-08-07T12:27:27.949Z,58.35
2022-08-07T12:30:11.748Z,58.24
2022-08-07T12:33:18.741Z,58.35
2022-08-07T12:35:57.829Z,58.33
2022-08-07T12:38:42.496Z,58.53
2022-08-07T12:41:15.309Z,58.73
2022-08-07T12:44:03.554Z,58.77
2022-08-07T12:47:30.434Z,58.87
2022-08-07T12:50:51.806Z,59.05
2022-08-07T12:54:03.418Z,59.10
2022-08-07T12:56:35.883Z,59.27
2022-08-07T12:59:09.702Z,59.31
2022-08-07T13:02:11.070Z,59.21
2022-08-07T13:06:03.743Z,59.31
2022-08-07T13:10:10.923Z,59.61
2022-08-07T13:12:10.200Z,59.74
2022-08-07T13:15:38.750Z,59.95
2022-08-07T13:18:36.022Z,59.99
2022-08-07T13:21:51.198Z,59.87
2022-08-07T13:24:43.995Z,59.81
2022-08-07T13:28:13.809Z,59.79
2022-08-07T13:30:41.176Z,59.70
2022-08-07T13:34:30.740Z,59.72
2022-08-07T13:37:00.853Z,59.73
2022-08-07T13:40:36.431Z,59.75
2022-08-07T13:43:16.393Z,59.68
2022-08-07T13:46:20.770Z,59.67
2022-08-07T13:48:58.544Z,59.62
2022-08-07T13:52:05.022Z,59.57
2022-08-07T13:54:29.424Z,59.56
2022-08-07T13:57:10.417Z,59.65
2022-08-07T13:59:55.022Z,59.53
2022-08-07T14:02:39.538Z,59.39
2022-08-07T14:05:28.959Z,59.31
2022-08-07T14:08:10.275Z,59.09
2022-08-07T14:10:45.732Z,58.94
2022-08-07T14:13:34.565Z,58.79
2022-08-07T14:16:15.263Z,58.79
2022-08-07T14:18:57.201Z,58.61
2022-08-07T14:22:01.287Z,58.52
2022-08-07T14:24:41.759Z,58.55
2022-08-07T14:28:11.492Z,58.23
2022-08-07T14:30:14.059Z,58.01
2022-08-07T14:33:04.408Z,57.92
2022-08-07T14:35:47.410Z,57.55
2022-08-07T14:38:30.777Z,57.46
2022-08-07T14:41:12.410Z,57.39
2022-08-07T14:43:59.026Z,57.37
2022-08-07T14:46:56.622Z,57.40
2022-08-07T14:49:58.042Z,57.22
2022-08-07T14:55:17.967Z,56.95
2022-08-07T14:57:57.963Z,56.51
2022-08-07T15:00:35.365Z,56.26
2022-08-07T15:03:17.492Z,56.29
2022-08-07T15:05:55.254Z,56.34
2022-08-07T15:08:52.952Z,56.01
2022-08-07T15:11:53.124Z,55.92
2022-08-07T15:14:26.141Z,55.95
2022-08-07T15:17:11.636Z,55.84
2022-08-07T15:20:32.560Z,55.40
2022-08-07T15:22:53.707Z,54.77
2022-08-07T15:25:37.433Z,54.56
2022-08-07T15:28:31.176Z,54.46
2022-08-07T15:31:06.447Z,54.28
2022-08-07T15:39:20.059Z,53.20
2022-08-07T15:42:45.602Z,52.90
2022-08-07T15:44:58.267Z,52.50
2022-08-07T15:48:01.159Z,52.45
2022-08-07T15:51:08.066Z,52.09
2022-08-07T15:53:51.730Z,51.22
2022-08-07T15:56:35.857Z,50.82
2022-08-07T15:59:40.095Z,50.54
2022-08-07T16:02:23.768Z,49.82
2022-08-07T16:05:01.968Z,49.52
2022-08-07T16:08:33.706Z,49.41
2022-08-07T16:10:38.525Z,49.10
2022-08-07T16:13:57.824Z,48.81
2022-08-07T16:16:49.842Z,48.23
2022-08-07T16:19:58.817Z,47.54
2022-08-07T16:23:12.369Z,47.29
2022-08-07T16:26:14.420Z,46.52
2022-08-07T16:30:08.331Z,46.20
2022-08-07T16:32:03.981Z,45.57
2022-08-07T16:34:51.215Z,44.78
2022-08-07T16:38:44.457Z,44.56
2022-08-07T16:41:20.259Z,44.11
2022-08-07T16:44:47.325Z,43.57
2022-08-07T16:48:07.576Z,42.78
2022-08-07T16:52:01.318Z,42.55
2022-08-07T16:54:38.074Z,42.44
2022-08-07T16:58:03.010Z,42.16
2022-08-07T17:01:34.632Z,42.44
2022-08-07T17:04:51.176Z,41.98
2022-08-07T17:07:55.743Z,41.57
2022-08-07T17:10:54.204Z,41.01
2022-08-07T17:14:17.976Z,41.00
2022-08-07T17:16:57.936Z,40.82
2022-08-07T17:20:01.980Z,40.20
2022-08-07T17:23:08.653Z,40.24
2022-08-07T17:26:22.695Z,39.97
2022-08-07T17:28:59.878Z,39.54
2022-08-07T17:31:44.264Z,39.80
2022-08-07T17:34:57.175Z,39.26
2022-08-07T17:38:06.595Z,39.01
2022-08-07T17:42:00.987Z,39.13
2022-08-07T17:44:14.778Z,38.64
2022-08-07T17:47:05.718Z,38.78
2022-08-07T17:50:04.195Z,38.31
2022-08-07T17:52:46.117Z,37.86
2022-08-07T17:56:00.204Z,37.48
2022-08-07T17:58:30.805Z,37.66
2022-08-07T18:01:20.770Z,37.51
2022-08-07T18:04:30.773Z,37.05
2022-08-07T18:07:28.473Z,36.86
2022-08-07T18:12:07.375Z,36.84
2022-08-07T18:13:51.267Z,36.78
2022-08-07T18:16:57.523Z,36.74
2022-08-07T18:21:07.324Z,36.35
2022-08-07T18:22:48.916Z,36.70
2022-08-07T18:25:40.276Z,36.14
2022-08-07T18:28:58.622Z,36.16
2022-08-07T18:31:49.829Z,36.04
2022-08-07T18:34:53.417Z,35.80
2022-08-07T18:38:57.299Z,35.95
2022-08-07T18:41:17.086Z,35.18
2022-08-07T18:45:39.502Z,35.07
2022-08-07T18:47:44.582Z,34.77
2022-08-07T18:50:46.346Z,34.62
2022-08-07T18:54:06.089Z,34.47
2022-08-07T18:57:30.206Z,34.33
2022-08-07T19:00:32.690Z,34.11
2022-08-07T19:03:16.396Z,34.03
2022-08-07T19:06:07.681Z,34.06
2022-08-07T19:09:08.966Z,33.85
2022-08-07T19:12:49.197Z,33.97
2022-08-07T19:16:05.025Z,33.87
2022-08-07T19:18:45.191Z,33.57
2022-08-07T19:21:47.524Z,33.62
2022-08-07T19:24:30.487Z,33.84
2022-08-07T19:28:29.101Z,33.56
2022-08-07T19:30:55.191Z,33.45
2022-08-07T19:33:13.066Z,33.53
2022-08-07T19:35:52.518Z,33.28
2022-08-07T19:38:22.847Z,32.99
2022-08-07T19:40:57.320Z,33.14
2022-08-07T19:43:43.414Z,32.69
2022-08-07T19:46:29.019Z,32.76
2022-08-07T19:49:08.812Z,32.45
2022-08-07T19:51:51.901Z,32.40
2022-08-07T19:54:55.829Z,32.13
2022-08-07T19:58:01.761Z,31.77
2022-08-07T20:00:36.786Z,31.47
2022-08-07T20:03:34.697Z,31.58
2022-08-07T20:06:05.304Z,31.84
2022-08-07T20:08:41.567Z,31.30
2022-08-07T20:12:00.913Z,31.28
2022-08-07T20:14:31.649Z,31.20
2022-08-07T20:17:06.982Z,31.07
2022-08-07T20:19:49.440Z,31.16
2022-08-07T20:22:34.042Z,30.95
2022-08-07T20:25:19.267Z,30.46
2022-08-07T20:27:58.277Z,30.94
2022-08-07T20:30:40.868Z,30.39
2022-08-07T20:33:36.288Z,30.25
2022-08-07T20:36:13.364Z,29.99
2022-08-07T20:39:00.668Z,30.02
2022-08-07T20:41:40.546Z,29.98
2022-08-07T20:44:13.059Z,29.61
2022-08-07T20:46:45.483Z,29.65
2022-08-07T20:50:00.833Z,29.33
2022-08-07T20:52:16.468Z,29.10
2022-08-07T20:54:53.472Z,28.84
2022-08-07T20:57:30.982Z,29.05
2022-08-07T21:00:09.431Z,28.77
2022-08-07T21:03:04.162Z,28.49
2022-08-07T21:06:21.451Z,28.68
2022-08-07T21:09:14.070Z,28.67
2022-08-07T21:11:51.122Z,28.29
2022-08-07T21:14:32.905Z,28.39
2022-08-07T21:18:04.070Z,28.28
2022-08-07T21:20:01.110Z,28.28
2022-08-07T21:22:51.207Z,28.07
2022-08-07T21:25:42.670Z,27.62
2022-08-07T21:28:48.388Z,27.89
2022-08-07T21:32:47.799Z,27.69
2022-08-07T21:35:00.693Z,27.46
2022-08-07T21:37:58.672Z,27.40
2022-08-07T21:41:37.938Z,27.71
2022-08-07T21:44:52.615Z,27.58
2022-08-07T21:47:34.650Z,27.73
2022-08-07T21:50:16.553Z,27.44
2022-08-07T21:53:17.609Z,27.42
2022-08-07T21:56:37.772Z,27.35
2022-08-07T22:00:04.139Z,27.23
2022-08-07T22:03:08.509Z,27.04
2022-08-07T22:06:28.892Z,27.04
2022-08-07T22:09:12.302Z,27.01
2022-08-07T22:12:05.994Z,26.66
2022-08-07T22:16:39.547Z,26.43
2022-08-07T22:18:08.475Z,26.52
2022-08-07T22:21:02.380Z,26.52
2022-08-07T22:23:46.335Z,25.99
2022-08-07T22:26:22.768Z,26.03
2022-08-07T22:29:33.754Z,25.87
2022-08-07T22:32:37.050Z,26.05
2022-08-07T22:35:13.206Z,25.76
2022-08-07T22:38:24.113Z,25.46
2022-08-07T22:42:02.363Z,25.58
2022-08-07T22:44:19.162Z,25.61
2022-08-07T22:47:27.294Z,25.42
2022-08-07T22:50:48.237Z,25.35
2022-08-07T22:54:08.170Z,25.28
2022-08-07T22:57:17.272Z,25.23
2022-08-07T23:00:13.464Z,25.21
2022-08-07T23:02:59.122Z,24.86
2022-08-07T23:06:15.371Z,24.83
2022-08-07T23:10:01.196Z,24.63
2022-08-07T23:12:34.779Z,24.93
2022-08-07T23:16:07.211Z,24.89
2022-08-07T23:19:47.848Z,24.86
2022-08-07T23:22:52.349Z,24.57
2022-08-07T23:25:52.915Z,24.58
2022-08-07T23:28:44.350Z,24.37
2022-08-07T23:32:48.719Z,24.27
2022-08-07T23:34:48.605Z,24.56
2022-08-07T23:37:37.182Z,24.39
2022-08-07T23:40:36.432Z,24.17
2022-08-07T23:43:45.998Z,24.47
2022-08-07T23:46:59.555Z,24.62
2022-08-07T23:50:06.937Z,25.02
2022-08-07T23:53:17.384Z,24.99
2022-08-07T23:56:05.167Z,25.08
